Time;durP1;ratioP1;P1;durP2;ratioP2;P2;SDS_P1;SDS_P2;PMS_P1;PMS_P2;Temp;Humidity;BMP_temperature;BMP_pressure;BME280_temperature;BME280_humidity;BME280_pressure;Samples;Min_cycle;Max_cycle;Signal;HPM_P1;HPM_P2
2022/06/28 00:00:57;;;;;;;16.40;13.70;;;;;;;18.57;100.00;100857.84;5004339;28;20057;-78
2022/06/28 00:03:23;;;;;;;16.73;14.45;;;;;;;18.53;100.00;100851.75;5024206;28;20041;-78
2022/06/28 00:05:48;;;;;;;17.42;15.63;;;;;;;18.51;100.00;100847.38;5024683;28;20067;-78
2022/06/28 00:08:14;;;;;;;18.58;16.42;;;;;;;18.49;100.00;100849.22;5023385;28;20034;-78
2022/06/28 00:10:39;;;;;;;16.50;14.60;;;;;;;18.47;100.00;100845.72;5021394;28;20179;-78
2022/06/28 00:13:04;;;;;;;18.92;16.92;;;;;;;18.40;100.00;100842.38;5021940;28;20065;-78
2022/06/28 00:18:14;;;;;;;75.53;70.72;;;;;;;18.20;100.00;100832.34;5022322;28;20080;-77
2022/06/28 00:20:39;;;;;;;19.38;15.70;;;;;;;18.08;100.00;100824.75;5021776;28;20041;-78
2022/06/28 00:23:04;;;;;;;20.65;16.55;;;;;;;18.02;100.00;100840.97;5022178;28;20116;-78
2022/06/28 00:25:30;;;;;;;18.25;15.70;;;;;;;17.94;100.00;100859.91;5020654;28;20504;-78
2022/06/28 00:27:55;;;;;;;20.35;18.35;;;;;;;17.94;100.00;100852.75;5019054;28;20037;-78
2022/06/28 00:30:20;;;;;;;18.48;16.23;;;;;;;17.95;100.00;100853.66;5022074;28;20410;-78
2022/06/28 00:32:46;;;;;;;25.23;17.23;;;;;;;18.00;100.00;100858.81;5020451;28;20050;-78
2022/06/28 00:35:11;;;;;;;25.00;19.33;;;;;;;18.06;100.00;100866.66;5004109;28;20033;-78
2022/06/28 00:37:36;;;;;;;30.40;19.88;;;;;;;18.21;100.00;100875.97;5004437;28;20033;-77
2022/06/28 00:40:02;;;;;;;24.85;19.30;;;;;;;18.35;100.00;100881.75;5019492;28;20085;-78
2022/06/28 00:42:27;;;;;;;28.17;20.13;;;;;;;18.46;100.00;100876.03;5021487;28;20044;-77
2022/06/28 00:44:53;;;;;;;25.73;20.50;;;;;;;18.54;100.00;100884.69;5019152;28;20038;-78
2022/06/28 00:47:18;;;;;;;22.77;18.35;;;;;;;18.57;100.00;100887.25;5020563;28;20065;-78
2022/06/28 00:49:44;;;;;;;17.77;15.32;;;;;;;18.59;100.00;100899.63;5021057;28;20032;-78
2022/06/28 00:52:12;;;;;;;20.50;16.70;;;;;;;18.61;100.00;100912.97;5021039;28;20041;-78
2022/06/28 00:54:37;;;;;;;22.05;19.65;;;;;;;18.63;100.00;100905.78;5020296;28;20030;-78
2022/06/28 00:57:04;;;;;;;21.27;17.70;;;;;;;18.61;100.00;100896.91;5021589;28;20033;-78
2022/06/28 00:59:29;;;;;;;20.58;16.88;;;;;;;18.60;100.00;100889.81;5024692;28;20060;-77
2022/06/28 01:01:59;;;;;;;26.60;18.33;;;;;;;18.70;100.00;100874.34;5024594;28;20500;-78
2022/06/28 01:04:25;;;;;;;17.35;15.20;;;;;;;18.73;100.00;100871.56;5022323;28;20132;-78
2022/06/28 01:06:53;;;;;;;22.55;17.40;;;;;;;18.79;100.00;100858.91;5024859;28;20036;-78
2022/06/28 01:09:18;;;;;;;21.42;17.52;;;;;;;18.86;100.00;100850.66;5026166;28;20044;-78
2022/06/28 01:11:43;;;;;;;21.10;18.58;;;;;;;18.84;100.00;100834.66;5028650;28;20037;-78
2022/06/28 01:14:09;;;;;;;23.27;17.73;;;;;;;18.89;100.00;100827.34;5025964;28;20246;-78
2022/06/28 01:16:54;;;;;;;23.38;19.70;;;;;;;18.91;100.00;100824.59;5022285;28;20034;-78
2022/06/28 01:19:24;;;;;;;18.30;16.40;;;;;;;18.89;100.00;100824.69;4992052;28;20033;-78
2022/06/28 01:21:58;;;;;;;20.00;17.77;;;;;;;18.92;100.00;100834.41;5021223;28;20518;-77
2022/06/28 01:24:26;;;;;;;19.20;17.15;;;;;;;18.90;100.00;100836.25;5011599;28;20064;-78
2022/06/28 01:27:00;;;;;;;24.77;20.60;;;;;;;18.98;100.00;100852.88;5006997;28;20038;-78
2022/06/28 01:29:27;;;;;;;22.30;19.02;;;;;;;19.00;100.00;100849.22;5024706;28;20116;-78
2022/06/28 01:32:15;;;;;;;21.67;19.38;;;;;;;19.07;100.00;100844.53;5008818;28;20079;-78
2022/06/28 01:34:41;;;;;;;21.25;18.77;;;;;;;19.04;100.00;100833.94;5005787;28;20021;-78
2022/06/28 01:37:07;;;;;;;19.25;16.67;;;;;;;18.98;100.00;100842.19;5008448;28;20113;-78
2022/06/28 01:39:33;;;;;;;20.65;16.83;;;;;;;18.96;100.00;100846.72;5003433;28;20440;-77
2022/06/28 01:41:59;;;;;;;20.25;18.25;;;;;;;18.94;100.00;100853.91;5006437;28;20029;-78
2022/06/28 01:44:28;;;;;;;21.48;19.17;;;;;;;18.92;100.00;100853.13;5022542;28;20496;-78
2022/06/28 01:47:06;;;;;;;18.50;16.67;;;;;;;18.95;100.00;100869.06;5023522;28;20083;-78
2022/06/28 01:49:52;;;;;;;21.83;19.63;;;;;;;18.92;100.00;100870.03;5031515;28;20049;-78
2022/06/28 01:52:19;;;;;;;24.58;22.13;;;;;;;18.87;100.00;100877.34;5007895;28;20414;-78
2022/06/28 01:54:44;;;;;;;23.60;21.25;;;;;;;18.84;100.00;100877.47;5028604;28;20029;-78
2022/06/28 01:57:10;;;;;;;25.73;22.98;;;;;;;18.81;100.00;100883.78;5016664;28;20120;-78
2022/06/28 01:59:46;;;;;;;26.00;21.88;;;;;;;18.81;99.97;100888.22;5023017;28;20038;-77
2022/06/28 02:02:27;;;;;;;25.95;22.70;;;;;;;18.85;100.00;100905.06;5022695;28;20056;-78
2022/06/28 02:05:12;;;;;;;28.23;25.45;;;;;;;18.88;99.52;100904.94;5023460;28;20530;-78
2022/06/28 02:07:46;;;;;;;24.15;21.65;;;;;;;18.90;99.60;100919.16;5021637;28;20036;-78
2022/06/28 02:10:11;;;;;;;24.77;21.67;;;;;;;18.87;99.50;100919.25;5007509;28;20159;-78
2022/06/28 02:12:37;;;;;;;23.75;21.27;;;;;;;18.93;99.52;100919.91;5019802;28;20066;-78
2022/06/28 02:15:03;;;;;;;24.23;21.65;;;;;;;18.94;98.24;100923.44;5007044;28;20049;-78
2022/06/28 02:17:29;;;;;;;22.80;20.52;;;;;;;19.06;98.68;100931.06;5004794;28;20033;-78
2022/06/28 02:19:54;;;;;;;24.23;21.73;;;;;;;18.97;98.21;100936.75;5008618;28;20084;-78
2022/06/28 02:22:20;;;;;;;24.83;22.27;;;;;;;18.94;97.87;100936.81;5021849;28;20096;-77
2022/06/28 02:24:45;;;;;;;22.20;20.08;;;;;;;18.91;97.65;100929.78;5024934;28;20040;-78
2022/06/28 02:27:10;;;;;;;21.98;19.63;;;;;;;18.98;97.29;100935.81;5020051;28;20037;-78
2022/06/28 02:29:36;;;;;;;25.42;22.73;;;;;;;19.02;97.53;100938.34;5007344;28;20069;-77
2022/06/28 02:32:01;;;;;;;23.05;20.70;;;;;;;19.09;96.75;100941.66;5003623;28;20026;-77
2022/06/28 02:42:38;;;;;;;22.15;19.95;;;;;;;19.13;95.65;100954.00;5022351;28;20042;-77
2022/06/28 02:45:05;;;;;;;24.63;21.20;;;;;;;19.15;95.97;100957.50;5021097;28;20045;-77
2022/06/28 02:47:30;;;;;;;21.73;19.58;;;;;;;19.15;95.42;100954.84;5024163;28;20041;-77
2022/06/28 02:49:55;;;;;;;22.27;19.98;;;;;;;19.09;96.20;100959.50;5021573;28;20437;-77
2022/06/28 02:52:20;;;;;;;23.90;21.48;;;;;;;19.06;97.01;100949.78;5019563;28;20029;-77
2022/06/28 02:54:46;;;;;;;23.42;20.40;;;;;;;19.11;97.14;100949.63;5006143;28;20033;-77
2022/06/28 02:57:11;;;;;;;24.30;21.67;;;;;;;19.16;96.57;100958.38;5017863;28;20100;-77
2022/06/28 02:59:37;;;;;;;24.85;22.23;;;;;;;19.13;97.20;100969.19;5005852;28;20033;-77
2022/06/28 03:02:03;;;;;;;23.88;21.27;;;;;;;19.15;96.67;100975.34;5006908;28;20033;-77
2022/06/28 03:04:29;;;;;;;23.00;20.65;;;;;;;19.20;95.98;100981.41;5019854;28;20029;-77
2022/06/28 03:06:54;;;;;;;22.95;20.52;;;;;;;19.31;96.09;100989.06;5006986;28;20041;-77
2022/06/28 03:09:20;;;;;;;19.65;17.55;;;;;;;19.34;94.62;100994.31;5020685;28;20076;-78
2022/06/28 03:11:45;;;;;;;16.98;15.27;;;;;;;19.41;93.37;100998.50;5006571;28;20056;-78
2022/06/28 03:14:11;;;;;;;17.35;15.65;;;;;;;19.49;91.70;101001.78;5022025;28;20034;-78
2022/06/28 03:16:36;;;;;;;20.77;18.58;;;;;;;19.43;92.96;101010.03;5023042;28;20045;-78
2022/06/28 03:19:01;;;;;;;18.30;16.40;;;;;;;19.46;91.88;101013.47;5023204;28;20041;-78
2022/06/28 03:21:27;;;;;;;19.73;17.83;;;;;;;19.42;91.08;101009.19;5022182;28;20037;-78
2022/06/28 03:23:52;;;;;;;18.77;16.88;;;;;;;19.45;91.82;101016.22;5035688;28;20068;-78
2022/06/28 03:26:18;;;;;;;19.40;17.40;;;;;;;19.47;91.83;101017.91;5006942;28;20098;-78
2022/06/28 03:28:44;;;;;;;19.02;17.20;;;;;;;19.49;91.61;101020.53;5019172;28;20046;-78
2022/06/28 03:31:09;;;;;;;19.63;17.65;;;;;;;19.48;91.87;101013.44;5022618;28;20133;-78
2022/06/28 03:33:34;;;;;;;19.25;17.27;;;;;;;19.46;91.15;101001.91;5032298;28;20017;-78
2022/06/28 03:36:00;;;;;;;21.75;17.42;;;;;;;19.43;91.49;101010.03;5025447;28;20033;-78
2022/06/28 03:38:32;;;;;;;20.48;18.40;;;;;;;19.39;91.82;101009.28;5023222;28;20037;-78
2022/06/28 03:41:06;;;;;;;20.65;18.60;;;;;;;19.33;91.24;101013.97;5005573;28;20029;-78
2022/06/28 03:43:31;;;;;;;23.75;21.30;;;;;;;19.24;91.31;101009.81;5004643;28;20037;-77
2022/06/28 03:45:58;;;;;;;20.63;18.52;;;;;;;19.16;91.89;101007.41;5022993;28;20489;-77
2022/06/28 03:48:45;;;;;;;24.25;21.77;;;;;;;19.16;92.88;100996.69;5007411;28;20064;-77
2022/06/28 03:51:35;;;;;;;21.45;19.27;;;;;;;19.16;92.07;100998.50;5019720;28;20038;-77
2022/06/28 03:54:17;;;;;;;26.63;23.83;;;;;;;19.15;91.86;101000.31;5004559;28;20034;-77
2022/06/28 03:56:48;;;;;;;25.45;22.73;;;;;;;19.16;91.61;100995.84;5020132;28;20038;-77
2022/06/28 03:59:15;;;;;;;25.00;22.30;;;;;;;19.14;91.97;100998.53;5022086;28;20071;-77
2022/06/28 04:01:40;;;;;;;27.98;25.17;;;;;;;19.14;92.29;100998.53;5021826;28;20069;-77
2022/06/28 04:04:06;;;;;;;21.73;19.58;;;;;;;19.08;92.71;100998.78;5024658;28;20104;-77
2022/06/28 04:06:36;;;;;;;22.73;20.13;;;;;;;19.00;93.35;100993.69;5008832;28;20030;-77
2022/06/28 04:09:01;;;;;;;24.77;22.27;;;;;;;19.01;94.29;101007.91;5006722;28;20030;-77
2022/06/28 04:11:27;;;;;;;25.02;22.20;;;;;;;18.95;95.52;101002.78;5019861;28;20471;-77
2022/06/28 04:13:53;;;;;;;24.05;21.65;;;;;;;18.93;94.95;101004.63;5005562;28;20037;-77
2022/06/28 04:16:21;;;;;;;25.58;22.17;;;;;;;18.79;96.38;101003.28;5018976;28;20034;-78
2022/06/28 04:18:47;;;;;;;27.27;24.48;;;;;;;18.58;98.87;100987.91;5011897;28;20076;-78
2022/06/28 04:21:25;;;;;;;55.75;50.90;;;;;;;18.46;99.87;100983.81;5007567;28;20448;-78
2022/06/28 04:24:01;;;;;;;28.90;25.80;;;;;;;18.45;100.00;100989.22;5020677;28;20030;-78
2022/06/28 04:26:27;;;;;;;26.83;23.98;;;;;;;18.45;100.00;100986.56;5038261;28;20040;-78
2022/06/28 04:28:52;;;;;;;30.98;26.70;;;;;;;18.33;100.00;100982.44;5032489;28;20034;-77
2022/06/28 04:31:21;;;;;;;32.25;29.10;;;;;;;18.30;100.00;100978.06;5006645;28;20049;-78
2022/06/28 04:33:46;;;;;;;28.35;25.33;;;;;;;18.33;100.00;100967.28;5006632;28;20028;-78
2022/06/28 04:36:13;;;;;;;30.08;27.05;;;;;;;18.33;100.00;100969.97;5023325;28;20036;-78
2022/06/28 04:38:44;;;;;;;28.27;25.23;;;;;;;18.37;100.00;100968.09;5011629;28;20148;-78
2022/06/28 04:41:12;;;;;;;30.85;27.02;;;;;;;18.37;100.00;100968.09;5010854;28;20578;-78
2022/06/28 04:43:50;;;;;;;28.85;25.65;;;;;;;18.46;100.00;100959.75;5025839;28;20033;-78
2022/06/28 04:46:21;;;;;;;34.33;30.63;;;;;;;18.52;100.00;100956.00;5013292;28;20045;-77
2022/06/28 04:48:48;;;;;;;30.15;25.67;;;;;;;18.52;100.00;100964.94;5021230;28;20153;-77
2022/06/28 04:51:14;;;;;;;27.33;24.52;;;;;;;18.59;100.00;100961.13;5032877;28;20044;-77
2022/06/28 04:53:43;;;;;;;29.58;26.00;;;;;;;18.65;99.50;100962.72;4999782;28;20097;-77
2022/06/28 04:56:11;;;;;;;31.20;28.10;;;;;;;18.61;98.29;100966.41;5030138;28;20029;-78
2022/06/28 04:58:40;;;;;;;25.20;22.52;;;;;;;18.65;98.08;100969.84;5013678;28;20460;-78
2022/06/28 05:01:06;;;;;;;24.48;21.77;;;;;;;18.68;97.42;100967.09;5032166;28;20037;-78
2022/06/28 05:03:32;;;;;;;21.67;19.38;;;;;;;18.69;95.43;100964.38;5015547;28;20399;-78
2022/06/28 05:06:00;;;;;;;19.02;17.23;;;;;;;18.64;93.85;100984.16;5021806;28;20124;-77
2022/06/28 05:08:25;;;;;;;18.98;17.17;;;;;;;18.62;92.52;100974.38;5033733;28;20072;-77
2022/06/28 05:11:03;;;;;;;16.95;15.15;;;;;;;18.64;93.61;100982.34;5004457;28;20025;-78
2022/06/28 05:13:46;;;;;;;13.95;12.35;;;;;;;18.75;93.14;100976.69;5029236;28;20052;-77
2022/06/28 05:16:14;;;;;;;14.60;13.10;;;;;;;18.73;92.51;100975.81;5023153;28;20048;-78
2022/06/28 05:18:40;;;;;;;14.77;13.32;;;;;;;18.76;90.61;100978.47;5007612;28;20512;-78
2022/06/28 05:21:08;;;;;;;17.67;15.93;;;;;;;18.71;91.27;100989.25;5019521;28;20039;-78
2022/06/28 05:23:37;;;;;;;14.25;12.23;;;;;;;18.72;92.01;100982.09;5011396;28;20026;-77
2022/06/28 05:26:24;;;;;;;17.92;16.20;;;;;;;18.79;91.22;100986.38;5024971;28;20165;-78
2022/06/28 05:29:09;;;;;;;14.55;13.13;;;;;;;18.73;91.23;100987.41;5012780;28;20504;-77
2022/06/28 05:31:35;;;;;;;16.23;14.50;;;;;;;18.70;91.07;100992.84;5025645;28;20047;-78
2022/06/28 05:34:01;;;;;;;17.55;15.75;;;;;;;18.68;92.24;100994.72;5027789;28;20041;-77
2022/06/28 05:36:27;;;;;;;16.30;14.65;;;;;;;18.77;91.96;100983.75;5015521;28;20051;-77
2022/06/28 05:38:52;;;;;;;20.77;18.77;;;;;;;18.78;93.18;100989.94;5023697;28;20564;-77
2022/06/28 05:41:18;;;;;;;19.00;17.10;;;;;;;18.89;91.21;100990.50;5026657;28;20107;-77
2022/06/28 05:43:43;;;;;;;21.75;19.55;;;;;;;18.86;90.56;100982.56;5025154;28;20096;-77
2022/06/28 05:46:09;;;;;;;49.88;46.17;;;;;;;18.90;90.64;100991.38;5024108;28;20051;-77
2022/06/28 05:48:34;;;;;;;21.63;19.30;;;;;;;18.95;91.33;100992.09;5022554;28;20128;-77
2022/06/28 05:50:59;;;;;;;28.08;25.48;;;;;;;18.91;90.92;100993.09;5028334;28;20503;-77
2022/06/28 05:53:25;;;;;;;43.30;39.95;;;;;;;18.96;89.07;101001.84;5025866;28;20488;-77
2022/06/28 05:55:51;;;;;;;22.70;18.58;;;;;;;19.07;90.42;101001.47;5021695;28;20096;-77
2022/06/28 05:58:16;;;;;;;50.05;46.50;;;;;;;19.08;87.91;100995.22;5024280;28;20033;-76
2022/06/28 06:00:41;;;;;;;29.02;26.48;;;;;;;19.18;87.65;100983.28;5027515;28;20507;-76
2022/06/28 06:03:07;;;;;;;23.20;20.80;;;;;;;19.24;86.69;100994.63;5032441;28;20120;-76
2022/06/28 06:05:33;;;;;;;34.03;31.23;;;;;;;19.25;86.04;100996.38;5007704;28;20100;-76
2022/06/28 06:07:58;;;;;;;27.27;24.83;;;;;;;19.20;86.81;101002.81;5020110;28;20436;-76
2022/06/28 06:10:24;;;;;;;19.33;17.33;;;;;;;19.29;86.62;100996.28;5007396;28;20175;-75
2022/06/28 06:12:49;;;;;;;21.27;19.27;;;;;;;19.33;87.67;101005.94;5018088;28;20492;-76
2022/06/28 06:15:15;;;;;;;26.48;24.13;;;;;;;19.44;84.96;101001.06;5007013;28;20084;-76
2022/06/28 06:17:40;;;;;;;48.40;44.70;;;;;;;19.47;83.33;101006.34;5002500;28;20116;-76
2022/06/28 06:20:08;;;;;;;22.48;20.48;;;;;;;19.56;84.97;101013.16;5023053;28;20496;-75
2022/06/28 06:22:34;;;;;;;21.80;19.83;;;;;;;19.46;83.96;101008.13;5003241;28;20029;-76
2022/06/28 06:25:05;;;;;;;42.50;39.42;;;;;;;19.42;84.29;101024.38;5021526;28;20037;-75
2022/06/28 06:27:35;;;;;;;17.02;15.43;;;;;;;19.34;83.87;101021.09;5026924;28;20045;-75
2022/06/28 06:30:01;;;;;;;15.15;13.63;;;;;;;19.46;85.38;101015.28;5023159;28;20037;-76
2022/06/28 06:32:37;;;;;;;14.98;13.23;;;;;;;19.53;84.35;101015.94;5006838;28;20033;-76
2022/06/28 06:35:21;;;;;;;17.58;15.98;;;;;;;19.52;83.26;101017.75;5028780;28;20094;-75
2022/06/28 06:37:48;;;;;;;16.67;14.98;;;;;;;19.52;82.32;101025.78;5024723;28;20037;-76
2022/06/28 06:40:13;;;;;;;15.90;14.48;;;;;;;19.54;81.86;101023.91;5021381;28;20033;-75
2022/06/28 06:42:39;;;;;;;14.13;12.52;;;;;;;19.52;81.17;101028.47;5024155;28;20029;-75
2022/06/28 06:45:05;;;;;;;18.67;16.98;;;;;;;19.52;81.06;101030.25;5017585;28;20030;-75
2022/06/28 06:47:30;;;;;;;12.13;10.90;;;;;;;19.68;81.11;101032.38;5011485;28;20049;-75
2022/06/28 06:49:55;;;;;;;13.77;12.45;;;;;;;19.74;79.79;101038.44;5023998;28;20068;-75
2022/06/28 06:52:21;;;;;;;14.30;13.00;;;;;;;19.76;79.24;101042.81;5016820;28;20112;-75
2022/06/28 06:54:48;;;;;;;44.50;41.45;;;;;;;19.85;79.29;101044.28;5004911;28;20096;-75
2022/06/28 06:57:15;;;;;;;14.23;12.82;;;;;;;20.03;79.73;101048.09;5004103;28;20487;-76
2022/06/28 06:59:41;;;;;;;11.30;10.10;;;;;;;20.11;78.11;101046.00;5024132;28;20084;-75
2022/06/28 07:02:07;;;;;;;11.35;10.10;;;;;;;20.32;76.06;101049.66;5002267;28;20046;-76
2022/06/28 07:04:44;;;;;;;15.65;14.45;;;;;;;20.48;73.49;101050.81;5022685;28;20038;-76
2022/06/28 07:07:09;;;;;;;13.68;12.48;;;;;;;20.60;73.53;101064.72;5028671;28;20041;-76
2022/06/28 07:09:35;;;;;;;10.02;9.02;;;;;;;20.71;71.66;101063.34;5003194;28;20044;-75
2022/06/28 07:12:01;;;;;;;16.08;14.82;;;;;;;20.87;70.69;101073.47;5005332;28;20033;-76
2022/06/28 07:14:27;;;;;;;15.15;13.73;;;;;;;20.90;70.92;101081.38;5016860;28;20444;-75
2022/06/28 07:16:54;;;;;;;8.65;7.85;;;;;;;21.14;69.54;101076.81;5007950;28;20061;-76
2022/06/28 07:19:21;;;;;;;33.05;30.85;;;;;;;21.32;67.98;101086.78;5031300;28;20033;-75
2022/06/28 07:21:49;;;;;;;17.20;15.95;;;;;;;21.35;66.84;101101.91;5014979;28;20057;-75
2022/06/28 07:24:17;;;;;;;11.45;10.32;;;;;;;21.36;67.33;101104.53;5026321;28;20100;-75
2022/06/28 07:26:42;;;;;;;10.00;9.00;;;;;;;21.35;65.64;101105.47;5022905;28;20037;-75
2022/06/28 07:29:08;;;;;;;11.50;10.40;;;;;;;21.49;67.62;101107.59;5013828;28;20538;-76
2022/06/28 07:31:33;;;;;;;9.73;7.57;;;;;;;21.67;64.94;101108.63;5010532;28;20057;-75
2022/06/28 07:33:59;;;;;;;10.55;9.05;;;;;;;21.78;63.82;101113.53;5019782;28;20558;-76
2022/06/28 07:36:24;;;;;;;10.00;9.00;;;;;;;21.63;64.64;101120.44;5009320;28;20033;-75
2022/06/28 07:38:50;;;;;;;9.57;8.02;;;;;;;21.65;64.58;101119.44;5025303;28;20499;-75
2022/06/28 07:41:19;;;;;;;8.98;8.07;;;;;;;21.61;65.70;101119.63;5020930;28;20038;-76
2022/06/28 07:44:03;;;;;;;9.05;7.40;;;;;;;21.76;64.55;101124.34;5022929;28;20056;-75
2022/06/28 07:46:30;;;;;;;9.88;8.88;;;;;;;22.01;62.89;101123.28;5024826;28;20042;-75
2022/06/28 07:48:55;;;;;;;10.85;9.73;;;;;;;22.27;62.67;101124.84;5010737;28;20064;-75
2022/06/28 07:54:07;;;;;;;15.10;13.80;;;;;;;22.05;61.87;101125.75;5024491;28;20435;-75
2022/06/28 07:56:38;;;;;;;9.27;8.30;;;;;;;22.30;62.79;101132.75;5018529;28;20096;-75
2022/06/28 07:59:06;;;;;;;12.95;11.65;;;;;;;22.23;62.20;101142.91;5004917;28;20308;-75
2022/06/28 08:01:32;;;;;;;9.13;8.23;;;;;;;22.37;62.73;101149.47;5023631;28;20034;-75
2022/06/28 08:04:00;;;;;;;15.25;13.90;;;;;;;22.26;61.25;101141.91;5027270;28;21027;-75
2022/06/28 08:06:25;;;;;;;11.05;9.95;;;;;;;21.92;62.29;101145.19;5019107;28;20041;-75
2022/06/28 08:08:57;;;;;;;11.98;9.13;;;;;;;21.92;61.22;101145.19;5018641;28;20500;-75
2022/06/28 08:11:22;;;;;;;32.63;30.42;;;;;;;21.98;61.39;101158.34;5003748;28;20029;-75
2022/06/28 08:13:48;;;;;;;11.27;9.85;;;;;;;21.71;62.26;101153.22;5020019;28;20037;-75
2022/06/28 08:16:15;;;;;;;11.98;10.50;;;;;;;21.77;62.37;101157.44;5005030;28;20083;-75
2022/06/28 08:18:42;;;;;;;11.13;10.02;;;;;;;21.44;63.87;101156.13;5018480;28;20038;-75
2022/06/28 08:21:08;;;;;;;12.82;11.32;;;;;;;21.44;64.49;101166.00;5021545;28;20037;-75
2022/06/28 08:23:34;;;;;;;12.27;10.60;;;;;;;21.61;64.13;101152.75;5022901;28;20034;-75
2022/06/28 08:25:59;;;;;;;13.18;11.88;;;;;;;22.22;62.63;101153.75;5003306;28;20516;-75
2022/06/28 08:28:24;;;;;;;12.43;11.13;;;;;;;22.72;59.01;101156.78;5003454;28;20061;-75
2022/06/28 08:30:50;;;;;;;11.43;10.32;;;;;;;22.93;58.83;101162.13;5020474;28;20151;-75
2022/06/28 08:33:15;;;;;;;12.63;11.32;;;;;;;22.62;57.68;101158.16;5001569;28;20030;-75
2022/06/28 08:35:40;;;;;;;11.70;10.55;;;;;;;22.47;59.80;101158.88;5022774;28;20034;-75
2022/06/28 08:38:06;;;;;;;11.30;10.10;;;;;;;22.36;59.79;101156.66;5022391;28;20715;-75
2022/06/28 08:40:33;;;;;;;18.40;16.90;;;;;;;22.45;59.18;101161.66;5019156;28;20080;-75
2022/06/28 08:42:59;;;;;;;11.27;10.18;;;;;;;22.87;58.45;101154.31;5020411;28;20037;-75
2022/06/28 08:45:25;;;;;;;16.23;14.60;;;;;;;23.44;57.93;101159.66;5019846;28;20036;-75
2022/06/28 08:47:53;;;;;;;15.90;14.55;;;;;;;23.73;55.72;101153.69;5022765;28;20049;-75
2022/06/28 08:50:34;;;;;;;13.02;11.90;;;;;;;24.02;56.10;101159.41;5023190;28;20059;-75
2022/06/28 08:53:04;;;;;;;11.93;9.65;;;;;;;23.83;55.60;101156.81;5018924;28;20069;-75
2022/06/28 08:55:31;;;;;;;21.77;19.88;;;;;;;23.46;55.92;101169.41;5022319;28;20060;-75
2022/06/28 08:57:58;;;;;;;15.65;9.15;;;;;;;23.23;56.61;101175.06;5021887;28;20029;-75
2022/06/28 09:00:24;;;;;;;9.55;8.65;;;;;;;23.05;55.52;101166.91;5022136;28;20040;-75
2022/06/28 09:02:51;;;;;;;11.27;10.20;;;;;;;23.22;56.05;101170.63;5020861;28;20034;-75
2022/06/28 09:05:19;;;;;;;10.52;9.50;;;;;;;23.63;55.15;101161.38;5019108;28;20034;-75
2022/06/28 09:07:44;;;;;;;10.27;9.27;;;;;;;24.33;53.00;101153.25;5011156;28;20485;-75
2022/06/28 09:10:10;;;;;;;11.65;10.55;;;;;;;24.49;52.61;101145.25;5022310;28;20038;-75
2022/06/28 09:12:36;;;;;;;10.68;9.68;;;;;;;24.23;53.75;101160.09;5021912;28;20418;-75
2022/06/28 09:15:04;;;;;;;11.32;10.23;;;;;;;23.99;53.90;101162.28;5022846;28;20033;-75
2022/06/28 09:17:32;;;;;;;11.90;10.80;;;;;;;24.04;54.00;101160.22;5022263;28;20582;-75
2022/06/28 09:20:16;;;;;;;12.63;11.52;;;;;;;24.13;51.66;101161.53;5024519;28;20041;-75
2022/06/28 09:22:43;;;;;;;8.50;7.75;;;;;;;24.31;51.60;101149.78;5022676;28;20049;-75
2022/06/28 09:25:12;;;;;;;10.98;9.88;;;;;;;24.07;52.95;101151.94;5023014;28;20100;-75
2022/06/28 09:27:41;;;;;;;12.68;11.55;;;;;;;24.00;53.27;101151.41;5023595;28;20034;-75
2022/06/28 09:30:12;;;;;;;22.15;20.65;;;;;;;24.06;51.66;101161.88;5030304;28;20037;-75
2022/06/28 09:32:38;;;;;;;17.15;15.93;;;;;;;24.19;51.64;101161.22;5025370;28;20140;-75
2022/06/28 09:35:09;;;;;;;7.80;7.07;;;;;;;24.30;51.12;101156.13;5025776;28;20033;-75
2022/06/28 09:37:56;;;;;;;13.17;12.00;;;;;;;24.36;50.12;101153.09;5030016;28;20029;-75
2022/06/28 09:40:24;;;;;;;9.98;8.98;;;;;;;24.62;49.67;101151.72;5024091;28;20107;-75
2022/06/28 09:43:19;;;;;;;14.27;13.15;;;;;;;24.86;49.60;101141.41;5028500;28;20633;-75
2022/06/28 09:45:50;;;;;;;12.18;11.05;;;;;;;24.66;48.52;101149.72;5017615;28;20050;-75
2022/06/28 09:48:17;;;;;;;10.00;9.00;;;;;;;24.34;49.13;101152.31;5025258;28;20036;-75
2022/06/28 09:50:43;;;;;;;10.02;9.13;;;;;;;24.43;51.42;101153.66;5026084;28;20541;-75
2022/06/28 09:53:09;;;;;;;10.60;9.68;;;;;;;24.83;49.44;101146.06;5027169;28;20179;-75
2022/06/28 09:55:35;;;;;;;12.93;11.93;;;;;;;24.87;49.28;101155.75;5024973;28;20113;-75
2022/06/28 09:58:02;;;;;;;9.43;8.30;;;;;;;24.78;49.61;101143.63;5025273;28;20551;-75
2022/06/28 10:00:29;;;;;;;8.82;8.02;;;;;;;25.03;50.10;101135.03;5022540;28;20037;-75
2022/06/28 10:02:57;;;;;;;8.48;7.05;;;;;;;25.46;46.74;101134.41;5022872;28;20041;-75
2022/06/28 10:05:23;;;;;;;17.13;15.77;;;;;;;25.53;47.64;101130.38;5024101;28;20033;-75
2022/06/28 10:07:48;;;;;;;20.75;19.50;;;;;;;25.59;45.90;101143.50;5021929;28;20037;-76
2022/06/28 10:10:14;;;;;;;9.50;8.68;;;;;;;25.71;45.45;101148.19;5025097;28;20033;-75
2022/06/28 10:15:27;;;;;;;17.08;15.73;;;;;;;25.78;48.20;101143.28;5021514;28;20068;-75
2022/06/28 10:17:54;;;;;;;25.35;23.27;;;;;;;25.08;46.78;101145.56;5023961;28;20083;-75
2022/06/28 10:20:26;;;;;;;8.50;7.78;;;;;;;24.67;47.34;101140.66;5023862;28;20034;-75
2022/06/28 10:22:52;;;;;;;16.50;15.25;;;;;;;24.45;47.11;101141.84;5024716;28;20037;-75
2022/06/28 10:25:22;;;;;;;8.10;7.30;;;;;;;23.98;48.88;101139.84;5029390;28;20472;-75
2022/06/28 10:27:52;;;;;;;9.60;8.75;;;;;;;23.75;49.64;101134.78;5026127;28;20049;-75
2022/06/28 10:30:29;;;;;;;6.43;5.68;;;;;;;23.90;50.42;101142.06;5022539;28;20060;-75
2022/06/28 10:33:02;;;;;;;6.97;6.15;;;;;;;24.30;49.61;101136.38;5021076;28;20041;-75
2022/06/28 10:35:36;;;;;;;7.95;7.10;;;;;;;24.89;47.20;101122.31;5022414;28;20559;-75
2022/06/28 10:38:07;;;;;;;10.80;9.90;;;;;;;25.55;46.58;101132.03;5020622;28;20037;-75
2022/06/28 10:40:49;;;;;;;17.77;16.60;;;;;;;25.35;46.56;101129.63;5005094;28;20033;-75
2022/06/28 10:43:27;;;;;;;13.30;12.30;;;;;;;25.21;46.75;101135.84;5024921;28;20029;-76
2022/06/28 10:46:07;;;;;;;12.98;11.85;;;;;;;24.99;46.00;101124.47;5020664;28;20091;-75
2022/06/28 10:48:48;;;;;;;42.25;39.88;;;;;;;24.85;46.69;101130.66;5021142;28;20570;-75
2022/06/28 10:51:14;;;;;;;65.97;62.03;;;;;;;24.83;45.66;101119.09;5020778;28;20092;-75
2022/06/28 10:54:02;;;;;;;9.48;8.68;;;;;;;24.77;47.13;101125.69;5023124;28;20037;-75
2022/06/28 10:56:46;;;;;;;6.97;5.07;;;;;;;24.98;46.67;101118.22;5021754;28;20108;-75
2022/06/28 10:59:16;;;;;;;12.52;11.45;;;;;;;24.82;45.42;101118.22;5021031;28;20719;-75
2022/06/28 11:01:44;;;;;;;7.20;5.55;;;;;;;25.15;44.01;101125.34;5022235;28;20099;-77
2022/06/28 11:04:23;;;;;;;5.85;4.82;;;;;;;25.48;42.23;101117.13;5022995;28;20091;-77
2022/06/28 11:07:23;;;;;;;14.43;13.32;;;;;;;25.20;41.57;101123.28;5022090;28;20037;-77
2022/06/28 11:10:00;;;;;;;6.68;5.97;;;;;;;25.73;41.20;101112.97;5028720;28;20498;-77
2022/06/28 11:12:31;;;;;;;4.72;3.92;;;;;;;26.56;40.29;101114.16;5025675;28;20040;-76
2022/06/28 11:15:01;;;;;;;39.55;37.00;;;;;;;26.44;40.92;101112.22;5020236;28;20042;-77
2022/06/28 11:17:30;;;;;;;5.57;4.80;;;;;;;25.93;42.37;101115.34;5020675;28;20485;-76
2022/06/28 11:20:00;;;;;;;27.02;25.42;;;;;;;26.01;42.16;101107.63;5021091;28;20087;-77
2022/06/28 11:22:31;;;;;;;18.60;17.48;;;;;;;26.08;40.91;101113.53;5023493;28;20373;-77
2022/06/28 11:24:59;;;;;;;6.00;5.05;;;;;;;26.00;41.91;101107.75;5022877;28;20092;-76
2022/06/28 11:27:26;;;;;;;10.85;9.93;;;;;;;26.33;41.54;101107.47;5022409;28;20037;-77
2022/06/28 11:30:00;;;;;;;7.03;4.85;;;;;;;26.87;39.47;101098.63;5027273;28;20037;-77
2022/06/28 11:32:37;;;;;;;6.28;5.68;;;;;;;27.26;38.76;101108.69;5020492;28;20033;-77